sensor_id;sensor_type;location;lat;lon;timestamp;temperature;humidity
37782;DHT22;23621;50.878;4.584;2022-11-04T00:01:56;17.50;73.20
37782;DHT22;23621;50.878;4.584;2022-11-04T00:04:25;17.40;73.10
37782;DHT22;23621;50.878;4.584;2022-11-04T00:06:53;17.40;73.10
37782;DHT22;23621;50.878;4.584;2022-11-04T00:09:25;17.40;73.10
37782;DHT22;23621;50.878;4.584;2022-11-04T00:11:52;17.40;73.10
37782;DHT22;23621;50.878;4.584;2022-11-04T00:14:38;17.30;73.00
37782;DHT22;23621;50.878;4.584;2022-11-04T00:17:07;17.30;73.10
37782;DHT22;23621;50.878;4.584;2022-11-04T00:19:46;17.30;73.10
37782;DHT22;23621;50.878;4.584;2022-11-04T00:22:31;17.30;73.10
37782;DHT22;23621;50.878;4.584;2022-11-04T00:25:17;17.20;73.00
37782;DHT22;23621;50.878;4.584;2022-11-04T00:28:17;17.10;73.10
37782;DHT22;23621;50.878;4.584;2022-11-04T00:31:05;17.20;73.20
37782;DHT22;23621;50.878;4.584;2022-11-04T00:33:51;17.20;73.00
37782;DHT22;23621;50.878;4.584;2022-11-04T00:36:19;17.20;72.80
37782;DHT22;23621;50.878;4.584;2022-11-04T00:38:46;17.20;72.90
37782;DHT22;23621;50.878;4.584;2022-11-04T00:41:13;17.20;72.80
37782;DHT22;23621;50.878;4.584;2022-11-04T00:43:59;17.20;72.60
37782;DHT22;23621;50.878;4.584;2022-11-04T00:46:27;17.30;72.60
37782;DHT22;23621;50.878;4.584;2022-11-04T00:48:54;17.30;72.40
37782;DHT22;23621;50.878;4.584;2022-11-04T00:51:22;17.40;72.30
37782;DHT22;23621;50.878;4.584;2022-11-04T00:53:49;17.40;72.10
37782;DHT22;23621;50.878;4.584;2022-11-04T00:56:16;17.40;72.00
37782;DHT22;23621;50.878;4.584;2022-11-04T00:58:43;17.50;72.00
37782;DHT22;23621;50.878;4.584;2022-11-04T01:01:12;17.50;71.90
37782;DHT22;23621;50.878;4.584;2022-11-04T01:03:48;17.60;72.00
37782;DHT22;23621;50.878;4.584;2022-11-04T01:06:15;17.60;72.00
37782;DHT22;23621;50.878;4.584;2022-11-04T01:08:43;17.70;72.00
37782;DHT22;23621;50.878;4.584;2022-11-04T01:11:10;17.70;71.80
37782;DHT22;23621;50.878;4.584;2022-11-04T01:13:37;17.70;71.90
37782;DHT22;23621;50.878;4.584;2022-11-04T01:16:07;17.70;71.90
37782;DHT22;23621;50.878;4.584;2022-11-04T01:18:34;17.70;72.00
37782;DHT22;23621;50.878;4.584;2022-11-04T01:21:03;17.70;72.00
37782;DHT22;23621;50.878;4.584;2022-11-04T01:23:30;17.70;72.10
37782;DHT22;23621;50.878;4.584;2022-11-04T01:25:57;17.70;72.00
37782;DHT22;23621;50.878;4.584;2022-11-04T01:28:24;17.60;72.00
37782;DHT22;23621;50.878;4.584;2022-11-04T01:30:51;17.60;72.10
37782;DHT22;23621;50.878;4.584;2022-11-04T01:33:18;17.60;72.00
37782;DHT22;23621;50.878;4.584;2022-11-04T01:35:45;17.60;72.10
37782;DHT22;23621;50.878;4.584;2022-11-04T01:38:11;17.60;72.10
37782;DHT22;23621;50.878;4.584;2022-11-04T01:40:39;17.60;72.00
37782;DHT22;23621;50.878;4.584;2022-11-04T01:43:21;17.50;72.00
37782;DHT22;23621;50.878;4.584;2022-11-04T01:45:55;17.50;72.10
37782;DHT22;23621;50.878;4.584;2022-11-04T01:48:27;17.40;72.00
37782;DHT22;23621;50.878;4.584;2022-11-04T01:50:56;17.40;72.10
37782;DHT22;23621;50.878;4.584;2022-11-04T01:53:32;17.40;72.10
37782;DHT22;23621;50.878;4.584;2022-11-04T01:56:04;17.30;72.10
37782;DHT22;23621;50.878;4.584;2022-11-04T01:58:49;17.30;72.10
37782;DHT22;23621;50.878;4.584;2022-11-04T02:01:18;17.30;72.10
37782;DHT22;23621;50.878;4.584;2022-11-04T02:03:50;17.20;72.00
37782;DHT22;23621;50.878;4.584;2022-11-04T02:06:18;17.20;72.00
37782;DHT22;23621;50.878;4.584;2022-11-04T02:08:47;17.20;72.00
37782;DHT22;23621;50.878;4.584;2022-11-04T02:11:15;17.20;71.90
37782;DHT22;23621;50.878;4.584;2022-11-04T02:14:02;17.20;71.90
37782;DHT22;23621;50.878;4.584;2022-11-04T02:16:39;17.20;71.80
37782;DHT22;23621;50.878;4.584;2022-11-04T02:31:00;17.20;71.40
37782;DHT22;23621;50.878;4.584;2022-11-04T02:39:21;17.10;71.40
37782;DHT22;23621;50.878;4.584;2022-11-04T02:42:27;17.10;71.40
37782;DHT22;23621;50.878;4.584;2022-11-04T02:47:41;17.00;71.40
37782;DHT22;23621;50.878;4.584;2022-11-04T02:52:44;17.10;71.60
37782;DHT22;23621;50.878;4.584;2022-11-04T02:55:30;17.10;71.50
37782;DHT22;23621;50.878;4.584;2022-11-04T02:58:01;17.20;71.50
37782;DHT22;23621;50.878;4.584;2022-11-04T03:00:31;17.20;71.50
37782;DHT22;23621;50.878;4.584;2022-11-04T03:03:03;17.20;71.50
37782;DHT22;23621;50.878;4.584;2022-11-04T03:05:35;17.20;71.40
37782;DHT22;23621;50.878;4.584;2022-11-04T03:08:16;17.20;71.50
37782;DHT22;23621;50.878;4.584;2022-11-04T03:10:55;17.30;71.60
37782;DHT22;23621;50.878;4.584;2022-11-04T03:13:31;17.30;71.60
37782;DHT22;23621;50.878;4.584;2022-11-04T03:16:04;17.30;71.50
37782;DHT22;23621;50.878;4.584;2022-11-04T03:21:19;17.30;71.50
37782;DHT22;23621;50.878;4.584;2022-11-04T03:23:47;17.30;71.60
37782;DHT22;23621;50.878;4.584;2022-11-04T03:26:39;17.30;71.60
37782;DHT22;23621;50.878;4.584;2022-11-04T03:29:25;17.40;71.70
37782;DHT22;23621;50.878;4.584;2022-11-04T03:32:14;17.40;71.70
37782;DHT22;23621;50.878;4.584;2022-11-04T03:34:45;17.40;71.70
37782;DHT22;23621;50.878;4.584;2022-11-04T03:37:12;17.40;71.60
37782;DHT22;23621;50.878;4.584;2022-11-04T03:39:39;17.40;72.40
37782;DHT22;23621;50.878;4.584;2022-11-04T03:42:10;17.40;71.60
37782;DHT22;23621;50.878;4.584;2022-11-04T03:44:52;17.40;71.80
37782;DHT22;23621;50.878;4.584;2022-11-04T03:47:24;17.40;71.80
37782;DHT22;23621;50.878;4.584;2022-11-04T03:52:51;17.40;71.80
37782;DHT22;23621;50.878;4.584;2022-11-04T03:55:18;17.40;71.70
37782;DHT22;23621;50.878;4.584;2022-11-04T03:58:04;17.40;71.70
37782;DHT22;23621;50.878;4.584;2022-11-04T04:00:43;17.40;71.80
37782;DHT22;23621;50.878;4.584;2022-11-04T04:03:16;17.40;71.80
37782;DHT22;23621;50.878;4.584;2022-11-04T04:05:51;17.40;71.80
37782;DHT22;23621;50.878;4.584;2022-11-04T04:14:06;17.50;72.10
37782;DHT22;23621;50.878;4.584;2022-11-04T04:16:42;17.50;72.20
37782;DHT22;23621;50.878;4.584;2022-11-04T04:19:20;17.50;72.20
37782;DHT22;23621;50.878;4.584;2022-11-04T04:22:04;17.50;72.20
37782;DHT22;23621;50.878;4.584;2022-11-04T04:24:35;17.60;72.30
37782;DHT22;23621;50.878;4.584;2022-11-04T04:27:22;17.50;72.10
37782;DHT22;23621;50.878;4.584;2022-11-04T04:30:10;17.50;72.20
37782;DHT22;23621;50.878;4.584;2022-11-04T04:35:10;17.50;72.30
37782;DHT22;23621;50.878;4.584;2022-11-04T04:37:59;17.40;72.10
37782;DHT22;23621;50.878;4.584;2022-11-04T04:40:56;17.40;72.10
37782;DHT22;23621;50.878;4.584;2022-11-04T04:43:43;17.40;72.10
37782;DHT22;23621;50.878;4.584;2022-11-04T04:46:30;17.40;72.10
37782;DHT22;23621;50.878;4.584;2022-11-04T04:49:08;17.40;72.30
37782;DHT22;23621;50.878;4.584;2022-11-04T04:51:39;17.40;72.40
37782;DHT22;23621;50.878;4.584;2022-11-04T04:54:08;17.40;72.50
37782;DHT22;23621;50.878;4.584;2022-11-04T04:56:35;17.40;72.50
37782;DHT22;23621;50.878;4.584;2022-11-04T04:59:01;17.40;72.50
37782;DHT22;23621;50.878;4.584;2022-11-04T05:01:28;17.40;72.50
37782;DHT22;23621;50.878;4.584;2022-11-04T05:03:55;17.40;72.50
37782;DHT22;23621;50.878;4.584;2022-11-04T05:06:22;17.40;72.50
37782;DHT22;23621;50.878;4.584;2022-11-04T05:08:49;17.40;72.50
37782;DHT22;23621;50.878;4.584;2022-11-04T05:11:15;17.40;72.60
37782;DHT22;23621;50.878;4.584;2022-11-04T05:13:45;17.40;72.60
37782;DHT22;23621;50.878;4.584;2022-11-04T05:16:11;17.40;72.60
37782;DHT22;23621;50.878;4.584;2022-11-04T05:18:38;17.40;72.80
37782;DHT22;23621;50.878;4.584;2022-11-04T05:21:07;17.40;72.80
37782;DHT22;23621;50.878;4.584;2022-11-04T05:23:34;17.40;72.90
37782;DHT22;23621;50.878;4.584;2022-11-04T05:26:02;17.50;72.90
37782;DHT22;23621;50.878;4.584;2022-11-04T05:28:29;17.50;73.00
37782;DHT22;23621;50.878;4.584;2022-11-04T05:30:56;17.50;73.00
37782;DHT22;23621;50.878;4.584;2022-11-04T05:33:23;17.50;73.10
37782;DHT22;23621;50.878;4.584;2022-11-04T05:35:50;17.50;73.10
37782;DHT22;23621;50.878;4.584;2022-11-04T05:38:17;17.50;73.10
37782;DHT22;23621;50.878;4.584;2022-11-04T05:40:43;17.50;73.20
37782;DHT22;23621;50.878;4.584;2022-11-04T05:43:10;17.50;73.40
37782;DHT22;23621;50.878;4.584;2022-11-04T05:45:37;17.50;73.40
37782;DHT22;23621;50.878;4.584;2022-11-04T05:48:04;17.50;73.50
37782;DHT22;23621;50.878;4.584;2022-11-04T05:50:32;17.50;73.60
37782;DHT22;23621;50.878;4.584;2022-11-04T05:53:00;17.50;73.70
37782;DHT22;23621;50.878;4.584;2022-11-04T05:55:27;17.50;73.70
37782;DHT22;23621;50.878;4.584;2022-11-04T05:57:54;17.50;73.70
37782;DHT22;23621;50.878;4.584;2022-11-04T06:00:23;17.50;73.80
37782;DHT22;23621;50.878;4.584;2022-11-04T06:02:50;17.60;74.00
37782;DHT22;23621;50.878;4.584;2022-11-04T06:05:20;17.60;74.00
37782;DHT22;23621;50.878;4.584;2022-11-04T06:07:47;17.60;74.00
37782;DHT22;23621;50.878;4.584;2022-11-04T06:10:14;17.60;74.00
37782;DHT22;23621;50.878;4.584;2022-11-04T06:12:41;17.60;74.10
37782;DHT22;23621;50.878;4.584;2022-11-04T06:15:08;17.60;74.20
37782;DHT22;23621;50.878;4.584;2022-11-04T06:17:35;17.60;74.40
37782;DHT22;23621;50.878;4.584;2022-11-04T06:20:02;17.60;74.50
37782;DHT22;23621;50.878;4.584;2022-11-04T06:22:29;17.50;74.50
37782;DHT22;23621;50.878;4.584;2022-11-04T06:24:56;17.50;74.60
37782;DHT22;23621;50.878;4.584;2022-11-04T06:27:23;17.60;74.80
37782;DHT22;23621;50.878;4.584;2022-11-04T06:29:50;17.60;74.80
37782;DHT22;23621;50.878;4.584;2022-11-04T06:32:18;17.60;74.80
37782;DHT22;23621;50.878;4.584;2022-11-04T06:34:45;17.60;74.80
37782;DHT22;23621;50.878;4.584;2022-11-04T06:37:12;17.60;74.80
37782;DHT22;23621;50.878;4.584;2022-11-04T06:39:39;17.60;74.90
37782;DHT22;23621;50.878;4.584;2022-11-04T06:42:06;17.60;75.00
37782;DHT22;23621;50.878;4.584;2022-11-04T06:44:33;17.60;75.00
37782;DHT22;23621;50.878;4.584;2022-11-04T06:47:00;17.60;75.00
37782;DHT22;23621;50.878;4.584;2022-11-04T06:49:27;17.60;75.00
37782;DHT22;23621;50.878;4.584;2022-11-04T06:51:54;17.60;75.10
37782;DHT22;23621;50.878;4.584;2022-11-04T06:54:21;17.60;75.20
37782;DHT22;23621;50.878;4.584;2022-11-04T06:56:48;17.60;75.30
37782;DHT22;23621;50.878;4.584;2022-11-04T06:59:17;17.60;75.30
37782;DHT22;23621;50.878;4.584;2022-11-04T07:01:45;17.60;75.40
37782;DHT22;23621;50.878;4.584;2022-11-04T07:04:12;17.70;75.50
37782;DHT22;23621;50.878;4.584;2022-11-04T07:06:41;17.60;75.40
37782;DHT22;23621;50.878;4.584;2022-11-04T07:09:12;17.70;75.50
37782;DHT22;23621;50.878;4.584;2022-11-04T07:11:40;17.70;75.50
37782;DHT22;23621;50.878;4.584;2022-11-04T07:14:07;17.70;75.50
37782;DHT22;23621;50.878;4.584;2022-11-04T07:16:34;17.70;75.60
37782;DHT22;23621;50.878;4.584;2022-11-04T07:19:02;17.70;75.50
37782;DHT22;23621;50.878;4.584;2022-11-04T07:21:29;17.70;75.50
37782;DHT22;23621;50.878;4.584;2022-11-04T07:23:56;17.70;75.60
37782;DHT22;23621;50.878;4.584;2022-11-04T07:26:23;17.60;75.60
37782;DHT22;23621;50.878;4.584;2022-11-04T07:28:50;17.60;75.70
37782;DHT22;23621;50.878;4.584;2022-11-04T07:31:17;17.50;75.70
37782;DHT22;23621;50.878;4.584;2022-11-04T07:33:44;17.50;75.70
37782;DHT22;23621;50.878;4.584;2022-11-04T07:36:16;17.50;75.80
37782;DHT22;23621;50.878;4.584;2022-11-04T07:38:43;17.50;75.70
37782;DHT22;23621;50.878;4.584;2022-11-04T07:41:11;17.50;75.70
37782;DHT22;23621;50.878;4.584;2022-11-04T07:43:38;17.50;75.70
37782;DHT22;23621;50.878;4.584;2022-11-04T07:46:11;17.50;75.60
37782;DHT22;23621;50.878;4.584;2022-11-04T07:48:38;17.50;75.60
37782;DHT22;23621;50.878;4.584;2022-11-04T07:51:07;17.50;75.70
37782;DHT22;23621;50.878;4.584;2022-11-04T07:53:34;17.50;75.70
37782;DHT22;23621;50.878;4.584;2022-11-04T07:56:06;17.60;75.70
37782;DHT22;23621;50.878;4.584;2022-11-04T07:58:33;17.60;75.80
37782;DHT22;23621;50.878;4.584;2022-11-04T08:01:06;17.60;75.80
37782;DHT22;23621;50.878;4.584;2022-11-04T08:03:34;17.60;75.90
37782;DHT22;23621;50.878;4.584;2022-11-04T08:06:04;17.60;76.00
37782;DHT22;23621;50.878;4.584;2022-11-04T08:08:31;17.60;76.10
37782;DHT22;23621;50.878;4.584;2022-11-04T08:11:06;17.60;76.00
37782;DHT22;23621;50.878;4.584;2022-11-04T08:13:40;17.70;76.20
37782;DHT22;23621;50.878;4.584;2022-11-04T08:16:17;17.70;76.20
37782;DHT22;23621;50.878;4.584;2022-11-04T08:18:44;17.70;76.20
37782;DHT22;23621;50.878;4.584;2022-11-04T08:21:12;17.70;76.20
37782;DHT22;23621;50.878;4.584;2022-11-04T08:23:39;17.80;76.20
37782;DHT22;23621;50.878;4.584;2022-11-04T08:26:07;17.80;76.20
37782;DHT22;23621;50.878;4.584;2022-11-04T08:28:35;17.80;76.20
37782;DHT22;23621;50.878;4.584;2022-11-04T08:31:09;17.80;76.30
37782;DHT22;23621;50.878;4.584;2022-11-04T08:33:36;17.80;76.30
37782;DHT22;23621;50.878;4.584;2022-11-04T08:36:09;17.80;76.40
37782;DHT22;23621;50.878;4.584;2022-11-04T08:38:36;17.80;77.20
37782;DHT22;23621;50.878;4.584;2022-11-04T08:41:05;17.80;76.50
37782;DHT22;23621;50.878;4.584;2022-11-04T08:43:33;17.90;76.60
37782;DHT22;23621;50.878;4.584;2022-11-04T08:46:02;17.80;76.50
37782;DHT22;23621;50.878;4.584;2022-11-04T08:48:30;17.90;76.60
37782;DHT22;23621;50.878;4.584;2022-11-04T08:50:57;17.90;76.60
37782;DHT22;23621;50.878;4.584;2022-11-04T08:53:24;18.00;76.70
37782;DHT22;23621;50.878;4.584;2022-11-04T08:55:52;18.00;76.70
37782;DHT22;23621;50.878;4.584;2022-11-04T08:58:20;17.90;76.60
37782;DHT22;23621;50.878;4.584;2022-11-04T09:00:47;18.00;76.70
37782;DHT22;23621;50.878;4.584;2022-11-04T09:03:15;18.00;76.70
37782;DHT22;23621;50.878;4.584;2022-11-04T09:05:42;18.00;76.60
37782;DHT22;23621;50.878;4.584;2022-11-04T09:08:15;18.10;76.80
37782;DHT22;23621;50.878;4.584;2022-11-04T09:10:43;18.10;76.90
37782;DHT22;23621;50.878;4.584;2022-11-04T09:13:11;18.10;76.80
37782;DHT22;23621;50.878;4.584;2022-11-04T09:15:38;18.10;76.80
37782;DHT22;23621;50.878;4.584;2022-11-04T09:18:05;18.20;76.80
37782;DHT22;23621;50.878;4.584;2022-11-04T09:20:33;18.20;76.80
37782;DHT22;23621;50.878;4.584;2022-11-04T09:23:00;18.20;77.10
37782;DHT22;23621;50.878;4.584;2022-11-04T09:25:27;18.30;76.80
37782;DHT22;23621;50.878;4.584;2022-11-04T09:27:54;18.30;76.70
37782;DHT22;23621;50.878;4.584;2022-11-04T09:30:21;18.30;76.80
37782;DHT22;23621;50.878;4.584;2022-11-04T09:32:48;18.40;76.80
37782;DHT22;23621;50.878;4.584;2022-11-04T09:35:18;18.40;76.90
37782;DHT22;23621;50.878;4.584;2022-11-04T09:37:45;18.40;76.90
37782;DHT22;23621;50.878;4.584;2022-11-04T09:40:18;18.50;77.00
37782;DHT22;23621;50.878;4.584;2022-11-04T09:45:23;18.60;76.90
37782;DHT22;23621;50.878;4.584;2022-11-04T09:47:56;18.60;76.90
37782;DHT22;23621;50.878;4.584;2022-11-04T09:50:27;18.70;77.00
37782;DHT22;23621;50.878;4.584;2022-11-04T09:53:06;18.70;77.00
37782;DHT22;23621;50.878;4.584;2022-11-04T09:55:44;18.70;77.00
37782;DHT22;23621;50.878;4.584;2022-11-04T09:58:12;18.80;77.00
37782;DHT22;23621;50.878;4.584;2022-11-04T10:00:56;18.90;77.70
37782;DHT22;23621;50.878;4.584;2022-11-04T10:03:42;18.90;76.90
37782;DHT22;23621;50.878;4.584;2022-11-04T10:09:57;19.00;76.80
37782;DHT22;23621;50.878;4.584;2022-11-04T10:28:35;19.30;76.30
37782;DHT22;23621;50.878;4.584;2022-11-04T10:31:05;19.30;76.20
37782;DHT22;23621;50.878;4.584;2022-11-04T10:33:36;19.30;76.00
37782;DHT22;23621;50.878;4.584;2022-11-04T10:36:09;19.30;75.90
37782;DHT22;23621;50.878;4.584;2022-11-04T10:43:39;19.30;75.50
37782;DHT22;23621;50.878;4.584;2022-11-04T10:48:53;19.30;75.60
37782;DHT22;23621;50.878;4.584;2022-11-04T10:51:21;19.20;75.60
37782;DHT22;23621;50.878;4.584;2022-11-04T10:53:53;19.20;75.40
37782;DHT22;23621;50.878;4.584;2022-11-04T10:59:55;19.20;75.40
37782;DHT22;23621;50.878;4.584;2022-11-04T11:02:15;19.30;75.40
37782;DHT22;23621;50.878;4.584;2022-11-04T11:04:42;19.20;75.30
37782;DHT22;23621;50.878;4.584;2022-11-04T11:07:14;19.20;75.40
37782;DHT22;23621;50.878;4.584;2022-11-04T11:09:51;19.30;75.60
37782;DHT22;23621;50.878;4.584;2022-11-04T11:12:24;19.30;75.40
37782;DHT22;23621;50.878;4.584;2022-11-04T11:15:26;19.20;75.10
37782;DHT22;23621;50.878;4.584;2022-11-04T11:20:26;19.10;75.00
37782;DHT22;23621;50.878;4.584;2022-11-04T11:23:33;19.10;75.20
37782;DHT22;23621;50.878;4.584;2022-11-04T11:26:28;19.00;75.00
37782;DHT22;23621;50.878;4.584;2022-11-04T11:29:21;19.10;75.40
37782;DHT22;23621;50.878;4.584;2022-11-04T11:32:32;19.10;75.30
37782;DHT22;23621;50.878;4.584;2022-11-04T11:35:24;19.10;75.40
37782;DHT22;23621;50.878;4.584;2022-11-04T11:38:24;19.10;75.50
37782;DHT22;23621;50.878;4.584;2022-11-04T11:41:13;19.10;75.40
37782;DHT22;23621;50.878;4.584;2022-11-04T11:44:28;19.10;75.60
37782;DHT22;23621;50.878;4.584;2022-11-04T11:47:33;19.20;75.60
37782;DHT22;23621;50.878;4.584;2022-11-04T11:50:29;19.20;75.70
37782;DHT22;23621;50.878;4.584;2022-11-04T11:53:21;19.20;75.50
37782;DHT22;23621;50.878;4.584;2022-11-04T11:56:29;19.20;75.40
37782;DHT22;23621;50.878;4.584;2022-11-04T11:59:48;19.30;75.50
37782;DHT22;23621;50.878;4.584;2022-11-04T12:06:26;19.30;75.60
37782;DHT22;23621;50.878;4.584;2022-11-04T12:18:48;19.20;75.10
37782;DHT22;23621;50.878;4.584;2022-11-04T12:30:24;19.10;75.10
37782;DHT22;23621;50.878;4.584;2022-11-04T12:40:20;18.90;75.10
37782;DHT22;23621;50.878;4.584;2022-11-04T12:43:24;18.90;75.10
37782;DHT22;23621;50.878;4.584;2022-11-04T12:46:27;18.90;75.10
37782;DHT22;23621;50.878;4.584;2022-11-04T13:02:00;19.10;75.00
37782;DHT22;23621;50.878;4.584;2022-11-04T13:05:06;19.10;74.80
37782;DHT22;23621;50.878;4.584;2022-11-04T13:10:54;19.10;74.90
37782;DHT22;23621;50.878;4.584;2022-11-04T13:13:43;19.10;74.70
37782;DHT22;23621;50.878;4.584;2022-11-04T13:16:40;19.20;74.80
37782;DHT22;23621;50.878;4.584;2022-11-04T13:23:00;19.30;75.00
37782;DHT22;23621;50.878;4.584;2022-11-04T13:25:50;19.40;75.10
37782;DHT22;23621;50.878;4.584;2022-11-04T13:28:39;19.40;75.00
37782;DHT22;23621;50.878;4.584;2022-11-04T13:38:31;19.30;74.90
37782;DHT22;23621;50.878;4.584;2022-11-04T13:44:26;19.30;74.60
37782;DHT22;23621;50.878;4.584;2022-11-04T13:47:20;19.30;74.60
37782;DHT22;23621;50.878;4.584;2022-11-04T13:53:16;19.30;74.00
37782;DHT22;23621;50.878;4.584;2022-11-04T13:56:03;19.30;74.40
37782;DHT22;23621;50.878;4.584;2022-11-04T14:04:57;19.30;74.50
37782;DHT22;23621;50.878;4.584;2022-11-04T14:08:10;19.20;74.30
37782;DHT22;23621;50.878;4.584;2022-11-04T14:11:03;19.30;74.50
37782;DHT22;23621;50.878;4.584;2022-11-04T14:14:01;19.30;74.60
37782;DHT22;23621;50.878;4.584;2022-11-04T14:16:48;19.30;74.50
37782;DHT22;23621;50.878;4.584;2022-11-04T14:19:46;19.30;74.20
37782;DHT22;23621;50.878;4.584;2022-11-04T14:25:39;19.30;74.00
37782;DHT22;23621;50.878;4.584;2022-11-04T14:28:28;19.10;73.90
37782;DHT22;23621;50.878;4.584;2022-11-04T14:31:36;19.10;74.20
37782;DHT22;23621;50.878;4.584;2022-11-04T14:34:28;19.20;74.40
37782;DHT22;23621;50.878;4.584;2022-11-04T14:37:25;19.20;74.30
37782;DHT22;23621;50.878;4.584;2022-11-04T14:40:27;19.20;74.40
37782;DHT22;23621;50.878;4.584;2022-11-04T14:43:32;19.20;74.50
37782;DHT22;23621;50.878;4.584;2022-11-04T14:46:27;19.10;74.50
37782;DHT22;23621;50.878;4.584;2022-11-04T14:55:30;18.90;75.00
37782;DHT22;23621;50.878;4.584;2022-11-04T14:58:25;18.90;75.00
37782;DHT22;23621;50.878;4.584;2022-11-04T15:01:15;19.00;75.10
37782;DHT22;23621;50.878;4.584;2022-11-04T15:04:12;19.00;75.00
37782;DHT22;23621;50.878;4.584;2022-11-04T15:07:03;19.00;75.00
37782;DHT22;23621;50.878;4.584;2022-11-04T15:09:51;19.00;74.60
37782;DHT22;23621;50.878;4.584;2022-11-04T15:12:43;18.90;74.40
37782;DHT22;23621;50.878;4.584;2022-11-04T15:15:38;18.90;73.50
37782;DHT22;23621;50.878;4.584;2022-11-04T15:18:27;18.80;73.50
37782;DHT22;23621;50.878;4.584;2022-11-04T15:21:15;18.70;73.30
37782;DHT22;23621;50.878;4.584;2022-11-04T15:24:02;18.70;72.80
37782;DHT22;23621;50.878;4.584;2022-11-04T15:26:51;18.70;72.70
37782;DHT22;23621;50.878;4.584;2022-11-04T15:29:39;18.70;72.40
37782;DHT22;23621;50.878;4.584;2022-11-04T15:32:26;18.70;72.10
37782;DHT22;23621;50.878;4.584;2022-11-04T15:35:13;18.60;72.00
37782;DHT22;23621;50.878;4.584;2022-11-04T15:38:01;18.60;72.80
37782;DHT22;23621;50.878;4.584;2022-11-04T15:40:49;18.60;72.00
37782;DHT22;23621;50.878;4.584;2022-11-04T15:43:38;18.50;71.70
37782;DHT22;23621;50.878;4.584;2022-11-04T15:46:27;18.40;71.70
37782;DHT22;23621;50.878;4.584;2022-11-04T15:49:26;18.40;71.80
37782;DHT22;23621;50.878;4.584;2022-11-04T15:52:23;18.30;71.70
37782;DHT22;23621;50.878;4.584;2022-11-04T15:55:22;18.20;71.90
37782;DHT22;23621;50.878;4.584;2022-11-04T15:58:13;18.20;72.00
37782;DHT22;23621;50.878;4.584;2022-11-04T16:01:00;18.20;72.00
37782;DHT22;23621;50.878;4.584;2022-11-04T16:03:53;18.20;72.00
37782;DHT22;23621;50.878;4.584;2022-11-04T16:06:43;18.20;72.10
37782;DHT22;23621;50.878;4.584;2022-11-04T16:09:31;18.10;72.10
37782;DHT22;23621;50.878;4.584;2022-11-04T16:12:42;18.10;72.00
37782;DHT22;23621;50.878;4.584;2022-11-04T16:21:24;18.10;72.10
37782;DHT22;23621;50.878;4.584;2022-11-04T16:24:21;18.10;72.30
37782;DHT22;23621;50.878;4.584;2022-11-04T16:27:10;18.00;72.10
37782;DHT22;23621;50.878;4.584;2022-11-04T16:33:15;18.00;72.40
37782;DHT22;23621;50.878;4.584;2022-11-04T16:36:11;18.00;72.40
37782;DHT22;23621;50.878;4.584;2022-11-04T16:39:01;18.00;72.50
37782;DHT22;23621;50.878;4.584;2022-11-04T16:41:54;18.00;72.50
37782;DHT22;23621;50.878;4.584;2022-11-04T16:44:47;18.00;72.50
37782;DHT22;23621;50.878;4.584;2022-11-04T16:47:37;18.10;72.60
37782;DHT22;23621;50.878;4.584;2022-11-04T16:50:26;18.10;72.70
37782;DHT22;23621;50.878;4.584;2022-11-04T16:53:14;18.00;72.60
37782;DHT22;23621;50.878;4.584;2022-11-04T16:56:01;18.00;72.70
37782;DHT22;23621;50.878;4.584;2022-11-04T16:58:48;18.00;72.70
37782;DHT22;23621;50.878;4.584;2022-11-04T17:01:36;18.00;72.80
37782;DHT22;23621;50.878;4.584;2022-11-04T17:04:25;18.00;72.80
37782;DHT22;23621;50.878;4.584;2022-11-04T17:07:12;18.00;72.80
37782;DHT22;23621;50.878;4.584;2022-11-04T17:10:00;18.00;72.90
37782;DHT22;23621;50.878;4.584;2022-11-04T17:12:47;18.00;73.00
37782;DHT22;23621;50.878;4.584;2022-11-04T17:15:34;17.90;72.90
37782;DHT22;23621;50.878;4.584;2022-11-04T17:18:21;17.90;72.90
37782;DHT22;23621;50.878;4.584;2022-11-04T17:21:12;17.90;72.90
37782;DHT22;23621;50.878;4.584;2022-11-04T17:24:03;17.90;73.00
37782;DHT22;23621;50.878;4.584;2022-11-04T17:26:50;17.90;73.10
37782;DHT22;23621;50.878;4.584;2022-11-04T17:29:37;17.80;73.00
37782;DHT22;23621;50.878;4.584;2022-11-04T17:32:25;17.80;73.10
37782;DHT22;23621;50.878;4.584;2022-11-04T17:35:13;17.70;73.00
37782;DHT22;23621;50.878;4.584;2022-11-04T17:38:00;17.70;73.20
37782;DHT22;23621;50.878;4.584;2022-11-04T17:40:47;17.60;73.10
37782;DHT22;23621;50.878;4.584;2022-11-04T17:43:53;17.60;73.20
37782;DHT22;23621;50.878;4.584;2022-11-04T17:46:46;17.50;73.20
37782;DHT22;23621;50.878;4.584;2022-11-04T17:49:35;17.50;73.20
37782;DHT22;23621;50.878;4.584;2022-11-04T17:52:25;17.50;73.20
37782;DHT22;23621;50.878;4.584;2022-11-04T17:55:12;17.50;73.10
37782;DHT22;23621;50.878;4.584;2022-11-04T17:58:05;17.50;73.20
37782;DHT22;23621;50.878;4.584;2022-11-04T18:00:52;17.40;73.00
37782;DHT22;23621;50.878;4.584;2022-11-04T18:03:40;17.40;73.10
37782;DHT22;23621;50.878;4.584;2022-11-04T18:06:33;17.40;73.10
37782;DHT22;23621;50.878;4.584;2022-11-04T18:09:20;17.40;73.00
37782;DHT22;23621;50.878;4.584;2022-11-04T18:12:07;17.30;72.70
37782;DHT22;23621;50.878;4.584;2022-11-04T18:15:14;17.30;72.70
37782;DHT22;23621;50.878;4.584;2022-11-04T18:18:04;17.20;72.60
37782;DHT22;23621;50.878;4.584;2022-11-04T18:21:01;17.20;72.50
37782;DHT22;23621;50.878;4.584;2022-11-04T18:23:48;17.10;72.50
37782;DHT22;23621;50.878;4.584;2022-11-04T18:26:36;17.10;72.50
37782;DHT22;23621;50.878;4.584;2022-11-04T18:29:23;17.00;72.40
37782;DHT22;23621;50.878;4.584;2022-11-04T18:32:10;17.00;72.40
37782;DHT22;23621;50.878;4.584;2022-11-04T18:34:57;17.00;72.30
37782;DHT22;23621;50.878;4.584;2022-11-04T18:37:45;17.00;72.40
37782;DHT22;23621;50.878;4.584;2022-11-04T18:40:33;16.90;72.30
37782;DHT22;23621;50.878;4.584;2022-11-04T18:43:20;16.90;72.20
37782;DHT22;23621;50.878;4.584;2022-11-04T18:46:09;16.80;72.10
37782;DHT22;23621;50.878;4.584;2022-11-04T18:48:57;16.80;72.10
37782;DHT22;23621;50.878;4.584;2022-11-04T18:51:45;16.70;72.00
37782;DHT22;23621;50.878;4.584;2022-11-04T18:54:32;16.70;72.00
37782;DHT22;23621;50.878;4.584;2022-11-04T18:57:20;16.60;71.90
37782;DHT22;23621;50.878;4.584;2022-11-04T19:00:08;16.60;71.70
37782;DHT22;23621;50.878;4.584;2022-11-04T19:03:02;16.50;71.80
37782;DHT22;23621;50.878;4.584;2022-11-04T19:05:50;16.50;72.00
37782;DHT22;23621;50.878;4.584;2022-11-04T19:08:37;16.50;72.10
37782;DHT22;23621;50.878;4.584;2022-11-04T19:11:34;16.50;72.00
37782;DHT22;23621;50.878;4.584;2022-11-04T19:14:22;16.50;72.10
37782;DHT22;23621;50.878;4.584;2022-11-04T19:17:09;16.50;71.90
37782;DHT22;23621;50.878;4.584;2022-11-04T19:19:56;16.50;71.90
37782;DHT22;23621;50.878;4.584;2022-11-04T19:22:44;16.50;71.90